sensor_id;sensor_type;location;lat;lon;timestamp;temperature;humidity
8856;DHT22;4464;50.882;4.730;2022-08-03T00:00:57;22.20;99.90
8856;DHT22;4464;50.882;4.730;2022-08-03T00:03:24;22.20;99.90
8856;DHT22;4464;50.882;4.730;2022-08-03T00:05:50;22.20;99.90
8856;DHT22;4464;50.882;4.730;2022-08-03T00:08:15;22.10;99.90
8856;DHT22;4464;50.882;4.730;2022-08-03T00:10:41;22.10;99.90
8856;DHT22;4464;50.882;4.730;2022-08-03T00:13:07;22.00;99.90
8856;DHT22;4464;50.882;4.730;2022-08-03T00:15:33;22.00;99.90
8856;DHT22;4464;50.882;4.730;2022-08-03T00:17:59;21.90;99.90
8856;DHT22;4464;50.882;4.730;2022-08-03T00:20:27;21.90;99.90
8856;DHT22;4464;50.882;4.730;2022-08-03T00:22:53;21.90;99.90
8856;DHT22;4464;50.882;4.730;2022-08-03T00:25:19;21.80;99.90
8856;DHT22;4464;50.882;4.730;2022-08-03T00:27:45;21.70;99.90
8856;DHT22;4464;50.882;4.730;2022-08-03T00:30:11;21.70;99.90
8856;DHT22;4464;50.882;4.730;2022-08-03T00:32:37;21.60;99.90
8856;DHT22;4464;50.882;4.730;2022-08-03T00:35:03;21.50;99.90
8856;DHT22;4464;50.882;4.730;2022-08-03T00:37:34;21.40;99.90
8856;DHT22;4464;50.882;4.730;2022-08-03T00:40:03;21.40;99.90
8856;DHT22;4464;50.882;4.730;2022-08-03T00:42:31;21.40;99.90
8856;DHT22;4464;50.882;4.730;2022-08-03T00:44:57;21.30;99.90
8856;DHT22;4464;50.882;4.730;2022-08-03T00:47:23;21.30;99.90
8856;DHT22;4464;50.882;4.730;2022-08-03T00:49:51;21.20;99.90
8856;DHT22;4464;50.882;4.730;2022-08-03T00:52:19;21.30;99.90
8856;DHT22;4464;50.882;4.730;2022-08-03T00:54:45;21.30;99.90
8856;DHT22;4464;50.882;4.730;2022-08-03T00:57:13;21.30;99.90
8856;DHT22;4464;50.882;4.730;2022-08-03T00:59:44;21.30;99.90
8856;DHT22;4464;50.882;4.730;2022-08-03T01:02:12;21.30;99.90
8856;DHT22;4464;50.882;4.730;2022-08-03T01:04:38;21.20;99.90
8856;DHT22;4464;50.882;4.730;2022-08-03T01:07:12;21.20;99.90
8856;DHT22;4464;50.882;4.730;2022-08-03T01:12:34;21.20;99.90
8856;DHT22;4464;50.882;4.730;2022-08-03T01:17:35;21.20;99.90
8856;DHT22;4464;50.882;4.730;2022-08-03T01:20:12;21.30;99.90
8856;DHT22;4464;50.882;4.730;2022-08-03T01:30:39;21.20;99.90
8856;DHT22;4464;50.882;4.730;2022-08-03T01:33:14;21.20;99.90
8856;DHT22;4464;50.882;4.730;2022-08-03T01:35:46;21.20;99.90
8856;DHT22;4464;50.882;4.730;2022-08-03T01:38:20;21.30;99.90
8856;DHT22;4464;50.882;4.730;2022-08-03T01:40:47;21.30;99.90
8856;DHT22;4464;50.882;4.730;2022-08-03T01:43:18;21.20;99.90
8856;DHT22;4464;50.882;4.730;2022-08-03T01:45:45;21.30;99.90
8856;DHT22;4464;50.882;4.730;2022-08-03T01:48:15;21.20;99.90
8856;DHT22;4464;50.882;4.730;2022-08-03T01:50:42;21.20;99.90
8856;DHT22;4464;50.882;4.730;2022-08-03T01:53:09;21.20;99.90
8856;DHT22;4464;50.882;4.730;2022-08-03T01:55:42;21.30;99.90
8856;DHT22;4464;50.882;4.730;2022-08-03T01:58:09;21.30;99.90
8856;DHT22;4464;50.882;4.730;2022-08-03T02:00:41;21.30;99.90
8856;DHT22;4464;50.882;4.730;2022-08-03T02:03:08;21.20;99.90
8856;DHT22;4464;50.882;4.730;2022-08-03T02:05:38;21.20;99.90
8856;DHT22;4464;50.882;4.730;2022-08-03T02:08:06;21.20;99.90
8856;DHT22;4464;50.882;4.730;2022-08-03T02:10:36;21.00;99.90
8856;DHT22;4464;50.882;4.730;2022-08-03T02:13:04;21.00;99.90
8856;DHT22;4464;50.882;4.730;2022-08-03T02:15:32;20.90;99.90
8856;DHT22;4464;50.882;4.730;2022-08-03T02:18:01;21.00;99.90
8856;DHT22;4464;50.882;4.730;2022-08-03T02:20:32;21.00;99.90
8856;DHT22;4464;50.882;4.730;2022-08-03T02:22:58;20.90;99.90
8856;DHT22;4464;50.882;4.730;2022-08-03T02:25:25;20.80;99.90
8856;DHT22;4464;50.882;4.730;2022-08-03T02:27:55;20.80;99.90
8856;DHT22;4464;50.882;4.730;2022-08-03T02:30:34;20.80;99.90
8856;DHT22;4464;50.882;4.730;2022-08-03T02:33:06;20.80;99.90
8856;DHT22;4464;50.882;4.730;2022-08-03T02:35:35;20.80;99.90
8856;DHT22;4464;50.882;4.730;2022-08-03T02:38:06;20.70;99.90
8856;DHT22;4464;50.882;4.730;2022-08-03T02:40:33;20.70;99.90
8856;DHT22;4464;50.882;4.730;2022-08-03T02:43:09;20.60;99.90
8856;DHT22;4464;50.882;4.730;2022-08-03T02:45:44;20.60;99.90
8856;DHT22;4464;50.882;4.730;2022-08-03T02:48:17;20.60;99.90
8856;DHT22;4464;50.882;4.730;2022-08-03T02:50:44;20.60;99.90
8856;DHT22;4464;50.882;4.730;2022-08-03T02:53:11;20.60;99.90
8856;DHT22;4464;50.882;4.730;2022-08-03T02:55:38;20.50;99.90
8856;DHT22;4464;50.882;4.730;2022-08-03T02:58:09;20.50;99.90
8856;DHT22;4464;50.882;4.730;2022-08-03T03:00:37;20.50;99.90
8856;DHT22;4464;50.882;4.730;2022-08-03T03:03:08;20.40;99.90
8856;DHT22;4464;50.882;4.730;2022-08-03T03:05:36;20.40;99.90
8856;DHT22;4464;50.882;4.730;2022-08-03T03:08:02;20.30;99.90
8856;DHT22;4464;50.882;4.730;2022-08-03T03:10:29;20.30;99.90
8856;DHT22;4464;50.882;4.730;2022-08-03T03:12:57;20.20;99.90
8856;DHT22;4464;50.882;4.730;2022-08-03T03:15:28;20.20;99.90
8856;DHT22;4464;50.882;4.730;2022-08-03T03:17:56;20.20;99.90
8856;DHT22;4464;50.882;4.730;2022-08-03T03:20:24;20.10;99.90
8856;DHT22;4464;50.882;4.730;2022-08-03T03:22:51;20.10;99.90
8856;DHT22;4464;50.882;4.730;2022-08-03T03:25:18;20.10;99.90
8856;DHT22;4464;50.882;4.730;2022-08-03T03:27:46;20.10;99.90
8856;DHT22;4464;50.882;4.730;2022-08-03T03:30:13;20.00;99.90
8856;DHT22;4464;50.882;4.730;2022-08-03T03:32:41;20.00;99.90
8856;DHT22;4464;50.882;4.730;2022-08-03T03:35:08;20.00;99.90
8856;DHT22;4464;50.882;4.730;2022-08-03T03:37:34;20.00;99.90
8856;DHT22;4464;50.882;4.730;2022-08-03T03:40:00;20.00;99.90
8856;DHT22;4464;50.882;4.730;2022-08-03T03:42:26;20.00;99.90
8856;DHT22;4464;50.882;4.730;2022-08-03T03:44:55;19.90;99.90
8856;DHT22;4464;50.882;4.730;2022-08-03T03:47:23;19.90;99.90
8856;DHT22;4464;50.882;4.730;2022-08-03T03:49:49;19.80;99.90
8856;DHT22;4464;50.882;4.730;2022-08-03T03:52:15;19.90;99.90
8856;DHT22;4464;50.882;4.730;2022-08-03T03:54:42;19.80;99.90
8856;DHT22;4464;50.882;4.730;2022-08-03T03:57:09;19.80;99.90
8856;DHT22;4464;50.882;4.730;2022-08-03T03:59:37;19.80;99.90
8856;DHT22;4464;50.882;4.730;2022-08-03T04:02:05;19.70;99.90
8856;DHT22;4464;50.882;4.730;2022-08-03T04:04:33;19.80;99.90
8856;DHT22;4464;50.882;4.730;2022-08-03T04:07:23;19.70;99.90
8856;DHT22;4464;50.882;4.730;2022-08-03T04:10:13;19.70;99.90
8856;DHT22;4464;50.882;4.730;2022-08-03T04:12:59;19.70;99.90
8856;DHT22;4464;50.882;4.730;2022-08-03T04:15:27;19.70;99.90
8856;DHT22;4464;50.882;4.730;2022-08-03T04:17:56;19.60;99.90
8856;DHT22;4464;50.882;4.730;2022-08-03T04:20:29;19.50;99.90
8856;DHT22;4464;50.882;4.730;2022-08-03T04:22:57;19.50;99.90
8856;DHT22;4464;50.882;4.730;2022-08-03T04:25:27;19.50;99.90
8856;DHT22;4464;50.882;4.730;2022-08-03T04:27:55;19.60;99.90
8856;DHT22;4464;50.882;4.730;2022-08-03T04:30:25;19.50;99.90
8856;DHT22;4464;50.882;4.730;2022-08-03T04:32:59;19.60;99.90
8856;DHT22;4464;50.882;4.730;2022-08-03T04:35:28;19.60;99.90
8856;DHT22;4464;50.882;4.730;2022-08-03T04:38:00;19.60;99.90
8856;DHT22;4464;50.882;4.730;2022-08-03T04:40:34;19.60;99.90
8856;DHT22;4464;50.882;4.730;2022-08-03T04:43:03;19.60;99.90
8856;DHT22;4464;50.882;4.730;2022-08-03T04:45:30;19.60;99.90
8856;DHT22;4464;50.882;4.730;2022-08-03T04:47:59;19.60;99.90
8856;DHT22;4464;50.882;4.730;2022-08-03T04:50:26;19.60;99.90
8856;DHT22;4464;50.882;4.730;2022-08-03T04:52:55;19.60;99.90
8856;DHT22;4464;50.882;4.730;2022-08-03T04:55:32;19.60;99.90
8856;DHT22;4464;50.882;4.730;2022-08-03T04:57:59;19.60;99.90
8856;DHT22;4464;50.882;4.730;2022-08-03T05:00:25;19.60;99.90
8856;DHT22;4464;50.882;4.730;2022-08-03T05:02:51;19.60;99.90
8856;DHT22;4464;50.882;4.730;2022-08-03T05:05:18;19.60;99.90
8856;DHT22;4464;50.882;4.730;2022-08-03T05:07:47;19.70;99.90
8856;DHT22;4464;50.882;4.730;2022-08-03T05:10:13;19.70;99.90
8856;DHT22;4464;50.882;4.730;2022-08-03T05:12:39;19.70;99.90
8856;DHT22;4464;50.882;4.730;2022-08-03T05:15:08;19.70;99.90
8856;DHT22;4464;50.882;4.730;2022-08-03T05:17:34;19.60;99.90
8856;DHT22;4464;50.882;4.730;2022-08-03T05:20:01;19.60;99.90
8856;DHT22;4464;50.882;4.730;2022-08-03T05:22:31;19.70;99.90
8856;DHT22;4464;50.882;4.730;2022-08-03T05:24:57;19.80;99.90
8856;DHT22;4464;50.882;4.730;2022-08-03T05:27:23;19.90;99.90
8856;DHT22;4464;50.882;4.730;2022-08-03T05:29:49;19.90;99.90
8856;DHT22;4464;50.882;4.730;2022-08-03T05:32:16;20.00;99.90
8856;DHT22;4464;50.882;4.730;2022-08-03T05:34:47;20.00;99.90
8856;DHT22;4464;50.882;4.730;2022-08-03T05:37:16;20.00;99.90
8856;DHT22;4464;50.882;4.730;2022-08-03T05:39:42;20.00;99.90
8856;DHT22;4464;50.882;4.730;2022-08-03T05:42:08;20.00;99.90
8856;DHT22;4464;50.882;4.730;2022-08-03T05:44:38;20.00;99.90
8856;DHT22;4464;50.882;4.730;2022-08-03T05:47:05;20.10;99.90
8856;DHT22;4464;50.882;4.730;2022-08-03T05:49:31;20.20;99.90
8856;DHT22;4464;50.882;4.730;2022-08-03T05:51:59;20.30;99.90
8856;DHT22;4464;50.882;4.730;2022-08-03T05:54:24;20.30;99.90
8856;DHT22;4464;50.882;4.730;2022-08-03T05:56:50;20.40;99.90
8856;DHT22;4464;50.882;4.730;2022-08-03T05:59:19;20.50;99.90
8856;DHT22;4464;50.882;4.730;2022-08-03T06:01:44;20.60;99.90
8856;DHT22;4464;50.882;4.730;2022-08-03T06:04:11;20.70;99.90
8856;DHT22;4464;50.882;4.730;2022-08-03T06:06:37;20.80;99.90
8856;DHT22;4464;50.882;4.730;2022-08-03T06:09:03;20.80;99.90
8856;DHT22;4464;50.882;4.730;2022-08-03T06:11:32;20.90;99.90
8856;DHT22;4464;50.882;4.730;2022-08-03T06:13:58;21.00;99.90
8856;DHT22;4464;50.882;4.730;2022-08-03T06:16:23;21.10;99.90
8856;DHT22;4464;50.882;4.730;2022-08-03T06:18:52;21.20;99.90
8856;DHT22;4464;50.882;4.730;2022-08-03T06:21:20;21.20;99.90
8856;DHT22;4464;50.882;4.730;2022-08-03T06:23:45;21.40;99.90
8856;DHT22;4464;50.882;4.730;2022-08-03T06:26:12;21.50;99.90
8856;DHT22;4464;50.882;4.730;2022-08-03T06:28:44;21.60;99.90
8856;DHT22;4464;50.882;4.730;2022-08-03T06:31:12;21.70;99.90
8856;DHT22;4464;50.882;4.730;2022-08-03T06:33:38;21.80;99.90
8856;DHT22;4464;50.882;4.730;2022-08-03T06:36:09;21.90;99.90
8856;DHT22;4464;50.882;4.730;2022-08-03T06:38:37;22.00;99.90
8856;DHT22;4464;50.882;4.730;2022-08-03T06:41:03;22.20;99.90
8856;DHT22;4464;50.882;4.730;2022-08-03T06:43:29;22.30;99.90
8856;DHT22;4464;50.882;4.730;2022-08-03T06:45:58;22.40;99.90
8856;DHT22;4464;50.882;4.730;2022-08-03T06:48:26;22.40;99.90
8856;DHT22;4464;50.882;4.730;2022-08-03T06:50:52;22.50;99.90
8856;DHT22;4464;50.882;4.730;2022-08-03T06:53:20;22.70;99.90
8856;DHT22;4464;50.882;4.730;2022-08-03T06:55:49;22.80;99.90
8856;DHT22;4464;50.882;4.730;2022-08-03T06:58:17;22.90;99.90
8856;DHT22;4464;50.882;4.730;2022-08-03T07:00:45;23.00;99.90
8856;DHT22;4464;50.882;4.730;2022-08-03T07:03:13;23.00;99.90
8856;DHT22;4464;50.882;4.730;2022-08-03T07:05:41;23.10;99.90
8856;DHT22;4464;50.882;4.730;2022-08-03T07:08:09;23.20;99.90
8856;DHT22;4464;50.882;4.730;2022-08-03T07:10:35;23.20;99.90
8856;DHT22;4464;50.882;4.730;2022-08-03T07:13:02;23.30;99.90
8856;DHT22;4464;50.882;4.730;2022-08-03T07:15:27;23.30;99.90
8856;DHT22;4464;50.882;4.730;2022-08-03T07:17:53;23.30;99.90
8856;DHT22;4464;50.882;4.730;2022-08-03T07:20:19;23.40;99.90
8856;DHT22;4464;50.882;4.730;2022-08-03T07:22:45;23.40;99.90
8856;DHT22;4464;50.882;4.730;2022-08-03T07:25:12;23.40;99.90
8856;DHT22;4464;50.882;4.730;2022-08-03T07:27:37;23.50;99.90
8856;DHT22;4464;50.882;4.730;2022-08-03T07:30:07;23.70;99.90
8856;DHT22;4464;50.882;4.730;2022-08-03T07:32:33;23.70;99.90
8856;DHT22;4464;50.882;4.730;2022-08-03T07:34:59;23.80;99.90
8856;DHT22;4464;50.882;4.730;2022-08-03T07:37:26;23.80;99.90
8856;DHT22;4464;50.882;4.730;2022-08-03T07:39:51;23.80;99.90
8856;DHT22;4464;50.882;4.730;2022-08-03T07:42:20;24.00;99.90
8856;DHT22;4464;50.882;4.730;2022-08-03T07:44:48;24.10;99.90
8856;DHT22;4464;50.882;4.730;2022-08-03T07:47:18;24.10;99.90
8856;DHT22;4464;50.882;4.730;2022-08-03T07:49:46;24.20;99.90
8856;DHT22;4464;50.882;4.730;2022-08-03T07:52:12;24.30;99.90
8856;DHT22;4464;50.882;4.730;2022-08-03T07:54:56;24.50;99.90
8856;DHT22;4464;50.882;4.730;2022-08-03T07:57:22;24.60;99.90
8856;DHT22;4464;50.882;4.730;2022-08-03T07:59:47;24.60;99.90
8856;DHT22;4464;50.882;4.730;2022-08-03T08:02:13;24.70;99.90
8856;DHT22;4464;50.882;4.730;2022-08-03T08:04:39;24.90;99.90
8856;DHT22;4464;50.882;4.730;2022-08-03T08:07:06;25.00;99.90
8856;DHT22;4464;50.882;4.730;2022-08-03T08:09:31;25.20;99.90
8856;DHT22;4464;50.882;4.730;2022-08-03T08:11:57;25.20;99.90
8856;DHT22;4464;50.882;4.730;2022-08-03T08:14:23;25.30;99.90
8856;DHT22;4464;50.882;4.730;2022-08-03T08:16:49;25.50;99.90
8856;DHT22;4464;50.882;4.730;2022-08-03T08:19:15;25.70;99.90
8856;DHT22;4464;50.882;4.730;2022-08-03T08:21:42;25.90;99.90
8856;DHT22;4464;50.882;4.730;2022-08-03T08:24:10;25.90;99.90
8856;DHT22;4464;50.882;4.730;2022-08-03T08:26:36;26.10;99.90
8856;DHT22;4464;50.882;4.730;2022-08-03T08:29:03;26.20;99.90
8856;DHT22;4464;50.882;4.730;2022-08-03T08:31:33;26.30;99.90
8856;DHT22;4464;50.882;4.730;2022-08-03T08:34:02;26.30;99.90
8856;DHT22;4464;50.882;4.730;2022-08-03T08:36:36;26.50;99.90
8856;DHT22;4464;50.882;4.730;2022-08-03T08:39:04;26.60;99.90
8856;DHT22;4464;50.882;4.730;2022-08-03T08:41:32;26.60;99.90
8856;DHT22;4464;50.882;4.730;2022-08-03T08:44:02;26.50;99.90
8856;DHT22;4464;50.882;4.730;2022-08-03T08:46:33;26.60;99.90
8856;DHT22;4464;50.882;4.730;2022-08-03T08:49:01;26.70;99.90
8856;DHT22;4464;50.882;4.730;2022-08-03T08:51:30;26.80;99.90
8856;DHT22;4464;50.882;4.730;2022-08-03T08:54:00;27.00;99.90
8856;DHT22;4464;50.882;4.730;2022-08-03T08:56:28;27.10;99.90
8856;DHT22;4464;50.882;4.730;2022-08-03T08:58:57;27.10;99.90
8856;DHT22;4464;50.882;4.730;2022-08-03T09:01:24;27.10;99.90
8856;DHT22;4464;50.882;4.730;2022-08-03T09:03:52;27.20;99.90
8856;DHT22;4464;50.882;4.730;2022-08-03T09:06:20;27.30;99.90
8856;DHT22;4464;50.882;4.730;2022-08-03T09:08:48;27.40;99.90
8856;DHT22;4464;50.882;4.730;2022-08-03T09:11:20;27.80;99.90
8856;DHT22;4464;50.882;4.730;2022-08-03T09:13:46;28.80;99.90
8856;DHT22;4464;50.882;4.730;2022-08-03T09:16:14;30.20;99.80
8856;DHT22;4464;50.882;4.730;2022-08-03T09:18:46;31.40;97.90
8856;DHT22;4464;50.882;4.730;2022-08-03T09:21:24;32.50;96.00
8856;DHT22;4464;50.882;4.730;2022-08-03T09:23:56;32.80;95.40
8856;DHT22;4464;50.882;4.730;2022-08-03T09:26:24;33.20;94.30
8856;DHT22;4464;50.882;4.730;2022-08-03T09:29:02;33.50;93.20
8856;DHT22;4464;50.882;4.730;2022-08-03T09:31:33;33.70;92.80
8856;DHT22;4464;50.882;4.730;2022-08-03T09:34:02;34.40;92.10
8856;DHT22;4464;50.882;4.730;2022-08-03T09:36:48;34.10;92.00
8856;DHT22;4464;50.882;4.730;2022-08-03T09:39:16;34.50;91.40
8856;DHT22;4464;50.882;4.730;2022-08-03T09:44:36;34.80;90.80
8856;DHT22;4464;50.882;4.730;2022-08-03T09:47:07;35.30;89.90
8856;DHT22;4464;50.882;4.730;2022-08-03T09:49:35;35.40;89.40
8856;DHT22;4464;50.882;4.730;2022-08-03T09:52:12;35.70;88.80
8856;DHT22;4464;50.882;4.730;2022-08-03T09:54:39;35.60;88.40
8856;DHT22;4464;50.882;4.730;2022-08-03T09:57:05;35.00;90.00
8856;DHT22;4464;50.882;4.730;2022-08-03T09:59:32;35.20;89.40
8856;DHT22;4464;50.882;4.730;2022-08-03T10:01:59;35.80;88.60
8856;DHT22;4464;50.882;4.730;2022-08-03T10:04:25;36.20;86.60
8856;DHT22;4464;50.882;4.730;2022-08-03T10:09:36;36.60;85.70
8856;DHT22;4464;50.882;4.730;2022-08-03T10:12:10;36.30;85.50
8856;DHT22;4464;50.882;4.730;2022-08-03T10:14:38;36.00;85.80
8856;DHT22;4464;50.882;4.730;2022-08-03T10:17:05;36.10;86.10
8856;DHT22;4464;50.882;4.730;2022-08-03T10:19:32;36.50;85.40
8856;DHT22;4464;50.882;4.730;2022-08-03T10:22:06;37.00;84.40
8856;DHT22;4464;50.882;4.730;2022-08-03T10:24:34;36.50;83.80
8856;DHT22;4464;50.882;4.730;2022-08-03T10:27:06;36.40;84.30
8856;DHT22;4464;50.882;4.730;2022-08-03T10:29:44;37.20;83.00
8856;DHT22;4464;50.882;4.730;2022-08-03T10:32:17;36.90;83.10
8856;DHT22;4464;50.882;4.730;2022-08-03T10:34:44;37.60;82.10
8856;DHT22;4464;50.882;4.730;2022-08-03T10:37:16;37.40;81.80
8856;DHT22;4464;50.882;4.730;2022-08-03T10:39:46;38.10;80.90
8856;DHT22;4464;50.882;4.730;2022-08-03T10:42:25;37.30;81.50
8856;DHT22;4464;50.882;4.730;2022-08-03T10:45:06;36.10;83.50
8856;DHT22;4464;50.882;4.730;2022-08-03T10:47:35;37.10;82.30
8856;DHT22;4464;50.882;4.730;2022-08-03T10:50:02;37.70;80.70
8856;DHT22;4464;50.882;4.730;2022-08-03T10:52:28;38.50;78.70
8856;DHT22;4464;50.882;4.730;2022-08-03T10:54:54;37.70;79.40
8856;DHT22;4464;50.882;4.730;2022-08-03T10:57:48;36.60;80.00
8856;DHT22;4464;50.882;4.730;2022-08-03T11:00:25;36.50;80.50
8856;DHT22;4464;50.882;4.730;2022-08-03T11:03:05;36.90;80.50
8856;DHT22;4464;50.882;4.730;2022-08-03T11:05:44;35.90;82.20
8856;DHT22;4464;50.882;4.730;2022-08-03T11:08:22;36.10;82.00
8856;DHT22;4464;50.882;4.730;2022-08-03T11:11:23;38.00;78.40
8856;DHT22;4464;50.882;4.730;2022-08-03T11:16:21;39.10;75.20
8856;DHT22;4464;50.882;4.730;2022-08-03T11:19:06;39.70;74.70
8856;DHT22;4464;50.882;4.730;2022-08-03T11:21:59;40.40;72.50
8856;DHT22;4464;50.882;4.730;2022-08-03T11:30:08;38.90;73.50
8856;DHT22;4464;50.882;4.730;2022-08-03T11:32:51;38.50;75.00
8856;DHT22;4464;50.882;4.730;2022-08-03T11:35:21;39.20;72.90
8856;DHT22;4464;50.882;4.730;2022-08-03T11:45:57;40.20;71.00
8856;DHT22;4464;50.882;4.730;2022-08-03T11:48:36;39.70;70.60
8856;DHT22;4464;50.882;4.730;2022-08-03T11:51:05;40.10;70.80
8856;DHT22;4464;50.882;4.730;2022-08-03T11:53:31;40.40;68.60
8856;DHT22;4464;50.882;4.730;2022-08-03T11:55:58;40.10;68.60
8856;DHT22;4464;50.882;4.730;2022-08-03T11:58:28;39.70;68.50
8856;DHT22;4464;50.882;4.730;2022-08-03T12:01:06;38.80;69.90
8856;DHT22;4464;50.882;4.730;2022-08-03T12:03:36;38.80;72.00
8856;DHT22;4464;50.882;4.730;2022-08-03T12:06:08;39.40;70.20
8856;DHT22;4464;50.882;4.730;2022-08-03T12:08:35;40.40;68.90
8856;DHT22;4464;50.882;4.730;2022-08-03T12:11:02;39.50;69.80
8856;DHT22;4464;50.882;4.730;2022-08-03T12:13:43;40.50;68.90
8856;DHT22;4464;50.882;4.730;2022-08-03T12:16:10;41.10;67.70
8856;DHT22;4464;50.882;4.730;2022-08-03T12:18:42;40.70;66.80
8856;DHT22;4464;50.882;4.730;2022-08-03T12:21:10;39.80;68.20
8856;DHT22;4464;50.882;4.730;2022-08-03T12:23:37;38.10;70.80
8856;DHT22;4464;50.882;4.730;2022-08-03T12:26:08;37.60;72.10
8856;DHT22;4464;50.882;4.730;2022-08-03T12:28:34;39.50;70.30
8856;DHT22;4464;50.882;4.730;2022-08-03T12:31:05;39.60;68.60
8856;DHT22;4464;50.882;4.730;2022-08-03T12:34:02;40.60;67.10
8856;DHT22;4464;50.882;4.730;2022-08-03T12:36:33;40.80;65.50
8856;DHT22;4464;50.882;4.730;2022-08-03T12:39:08;41.00;64.80
8856;DHT22;4464;50.882;4.730;2022-08-03T12:41:38;39.80;65.50
8856;DHT22;4464;50.882;4.730;2022-08-03T12:44:05;40.10;66.40
8856;DHT22;4464;50.882;4.730;2022-08-03T12:46:35;41.10;64.60
8856;DHT22;4464;50.882;4.730;2022-08-03T12:49:07;42.00;63.30
8856;DHT22;4464;50.882;4.730;2022-08-03T12:54:08;40.70;63.70
8856;DHT22;4464;50.882;4.730;2022-08-03T12:56:34;39.30;65.10
8856;DHT22;4464;50.882;4.730;2022-08-03T12:59:24;36.50;70.00
8856;DHT22;4464;50.882;4.730;2022-08-03T13:01:53;38.30;68.80
8856;DHT22;4464;50.882;4.730;2022-08-03T13:04:33;39.50;66.90
8856;DHT22;4464;50.882;4.730;2022-08-03T13:07:06;38.70;67.60
8856;DHT22;4464;50.882;4.730;2022-08-03T13:09:46;38.10;67.90
8856;DHT22;4464;50.882;4.730;2022-08-03T13:12:17;38.20;68.20
8856;DHT22;4464;50.882;4.730;2022-08-03T13:14:46;37.40;69.10
8856;DHT22;4464;50.882;4.730;2022-08-03T13:17:14;37.20;69.10
8856;DHT22;4464;50.882;4.730;2022-08-03T13:19:44;38.20;68.30
8856;DHT22;4464;50.882;4.730;2022-08-03T13:24:41;40.30;63.40
8856;DHT22;4464;50.882;4.730;2022-08-03T13:27:07;37.70;67.80
8856;DHT22;4464;50.882;4.730;2022-08-03T13:29:34;38.00;67.30
8856;DHT22;4464;50.882;4.730;2022-08-03T13:32:03;39.30;65.10
8856;DHT22;4464;50.882;4.730;2022-08-03T13:34:32;38.10;65.90
8856;DHT22;4464;50.882;4.730;2022-08-03T13:36:58;39.60;64.50
8856;DHT22;4464;50.882;4.730;2022-08-03T13:39:24;39.20;64.00
8856;DHT22;4464;50.882;4.730;2022-08-03T13:41:52;40.20;62.90
8856;DHT22;4464;50.882;4.730;2022-08-03T13:44:23;39.60;64.60
8856;DHT22;4464;50.882;4.730;2022-08-03T13:46:52;39.10;64.60
8856;DHT22;4464;50.882;4.730;2022-08-03T13:49:18;39.90;63.40
8856;DHT22;4464;50.882;4.730;2022-08-03T13:51:47;40.70;62.00
8856;DHT22;4464;50.882;4.730;2022-08-03T13:54:13;41.80;61.10
8856;DHT22;4464;50.882;4.730;2022-08-03T13:56:38;40.50;61.70
8856;DHT22;4464;50.882;4.730;2022-08-03T13:59:05;41.20;62.40
8856;DHT22;4464;50.882;4.730;2022-08-03T14:01:31;42.30;59.40
8856;DHT22;4464;50.882;4.730;2022-08-03T14:03:56;42.70;59.40
8856;DHT22;4464;50.882;4.730;2022-08-03T14:06:23;43.40;58.40
8856;DHT22;4464;50.882;4.730;2022-08-03T14:08:50;45.20;56.80
8856;DHT22;4464;50.882;4.730;2022-08-03T14:11:17;45.70;55.50
8856;DHT22;4464;50.882;4.730;2022-08-03T14:13:46;44.90;55.10
8856;DHT22;4464;50.882;4.730;2022-08-03T14:16:15;43.40;56.00
8856;DHT22;4464;50.882;4.730;2022-08-03T14:18:41;41.00;57.90
8856;DHT22;4464;50.882;4.730;2022-08-03T14:21:07;41.00;59.20
8856;DHT22;4464;50.882;4.730;2022-08-03T14:23:36;41.50;58.20
8856;DHT22;4464;50.882;4.730;2022-08-03T14:26:05;42.80;57.20
8856;DHT22;4464;50.882;4.730;2022-08-03T14:28:32;43.10;56.60
8856;DHT22;4464;50.882;4.730;2022-08-03T14:31:00;40.70;58.10
8856;DHT22;4464;50.882;4.730;2022-08-03T14:33:29;40.00;59.00
8856;DHT22;4464;50.882;4.730;2022-08-03T14:35:54;40.40;59.00
8856;DHT22;4464;50.882;4.730;2022-08-03T14:38:20;41.90;58.40
8856;DHT22;4464;50.882;4.730;2022-08-03T14:40:47;42.80;56.90
8856;DHT22;4464;50.882;4.730;2022-08-03T14:43:13;41.80;57.20
8856;DHT22;4464;50.882;4.730;2022-08-03T14:45:40;41.20;58.20
8856;DHT22;4464;50.882;4.730;2022-08-03T14:48:06;42.50;57.10
8856;DHT22;4464;50.882;4.730;2022-08-03T14:50:34;43.10;56.30
8856;DHT22;4464;50.882;4.730;2022-08-03T14:53:00;42.00;57.00
8856;DHT22;4464;50.882;4.730;2022-08-03T14:55:26;41.70;56.70
8856;DHT22;4464;50.882;4.730;2022-08-03T14:57:54;42.10;57.10
8856;DHT22;4464;50.882;4.730;2022-08-03T15:00:22;41.80;56.90
8856;DHT22;4464;50.882;4.730;2022-08-03T15:02:48;42.70;56.10
8856;DHT22;4464;50.882;4.730;2022-08-03T15:05:13;43.50;55.40
8856;DHT22;4464;50.882;4.730;2022-08-03T15:07:39;43.60;55.00
8856;DHT22;4464;50.882;4.730;2022-08-03T15:10:05;43.70;54.90
8856;DHT22;4464;50.882;4.730;2022-08-03T15:12:31;43.80;54.50
8856;DHT22;4464;50.882;4.730;2022-08-03T15:14:57;43.50;54.70
8856;DHT22;4464;50.882;4.730;2022-08-03T15:17:23;43.50;54.30
8856;DHT22;4464;50.882;4.730;2022-08-03T15:19:51;43.30;54.10
8856;DHT22;4464;50.882;4.730;2022-08-03T15:22:17;43.90;54.10
8856;DHT22;4464;50.882;4.730;2022-08-03T15:24:43;43.40;53.70
8856;DHT22;4464;50.882;4.730;2022-08-03T15:27:11;42.10;55.10
8856;DHT22;4464;50.882;4.730;2022-08-03T15:29:37;40.10;57.70
8856;DHT22;4464;50.882;4.730;2022-08-03T15:32:06;41.20;57.30
8856;DHT22;4464;50.882;4.730;2022-08-03T15:34:32;42.10;56.20
8856;DHT22;4464;50.882;4.730;2022-08-03T15:37:00;42.50;54.60
8856;DHT22;4464;50.882;4.730;2022-08-03T15:39:25;43.30;54.20
8856;DHT22;4464;50.882;4.730;2022-08-03T15:41:51;43.10;54.00
8856;DHT22;4464;50.882;4.730;2022-08-03T15:44:20;42.70;54.30
8856;DHT22;4464;50.882;4.730;2022-08-03T15:46:46;41.70;55.00
8856;DHT22;4464;50.882;4.730;2022-08-03T15:49:13;40.40;56.20
8856;DHT22;4464;50.882;4.730;2022-08-03T15:51:39;40.60;56.10
8856;DHT22;4464;50.882;4.730;2022-08-03T15:54:06;40.40;56.30
8856;DHT22;4464;50.882;4.730;2022-08-03T15:56:31;41.50;55.50
8856;DHT22;4464;50.882;4.730;2022-08-03T15:58:57;42.70;54.50
8856;DHT22;4464;50.882;4.730;2022-08-03T16:01:23;42.70;54.40
8856;DHT22;4464;50.882;4.730;2022-08-03T16:03:50;43.40;54.70
8856;DHT22;4464;50.882;4.730;2022-08-03T16:06:16;43.60;52.60
8856;DHT22;4464;50.882;4.730;2022-08-03T16:08:42;42.40;53.40
8856;DHT22;4464;50.882;4.730;2022-08-03T16:11:09;41.90;54.10
8856;DHT22;4464;50.882;4.730;2022-08-03T16:13:35;41.40;54.50
8856;DHT22;4464;50.882;4.730;2022-08-03T16:16:01;41.70;54.20
8856;DHT22;4464;50.882;4.730;2022-08-03T16:18:29;41.90;54.10
8856;DHT22;4464;50.882;4.730;2022-08-03T16:20:58;41.10;55.00
8856;DHT22;4464;50.882;4.730;2022-08-03T16:23:26;42.00;54.30
8856;DHT22;4464;50.882;4.730;2022-08-03T16:25:51;41.40;54.60
8856;DHT22;4464;50.882;4.730;2022-08-03T16:28:18;41.40;54.70
8856;DHT22;4464;50.882;4.730;2022-08-03T16:30:45;41.50;54.70
8856;DHT22;4464;50.882;4.730;2022-08-03T16:33:12;41.80;54.40
8856;DHT22;4464;50.882;4.730;2022-08-03T16:35:39;42.20;53.60
8856;DHT22;4464;50.882;4.730;2022-08-03T16:38:06;42.70;53.20
8856;DHT22;4464;50.882;4.730;2022-08-03T16:40:32;42.90;53.10
8856;DHT22;4464;50.882;4.730;2022-08-03T16:42:58;42.40;53.80
8856;DHT22;4464;50.882;4.730;2022-08-03T16:45:26;41.70;54.40
8856;DHT22;4464;50.882;4.730;2022-08-03T16:47:52;40.90;54.70
8856;DHT22;4464;50.882;4.730;2022-08-03T16:50:18;41.20;54.70
8856;DHT22;4464;50.882;4.730;2022-08-03T16:52:44;41.10;54.70